sensor_id;sensor_type;location;lat;lon;timestamp;P1;durP1;ratioP1;P2;durP2;ratioP2
76131;SDS011;64877;50.994;13.650;2023-02-28T00:00:38;7.15;;;3.33;;
76131;SDS011;64877;50.994;13.650;2023-02-28T00:03:04;7.93;;;3.50;;
76131;SDS011;64877;50.994;13.650;2023-02-28T00:05:29;5.70;;;3.25;;
76131;SDS011;64877;50.994;13.650;2023-02-28T00:07:55;5.88;;;3.28;;
76131;SDS011;64877;50.994;13.650;2023-02-28T00:10:25;7.60;;;4.22;;
76131;SDS011;64877;50.994;13.650;2023-02-28T00:12:54;12.00;;;4.60;;
76131;SDS011;64877;50.994;13.650;2023-02-28T00:15:21;8.88;;;3.90;;
76131;SDS011;64877;50.994;13.650;2023-02-28T00:17:48;10.73;;;4.43;;
76131;SDS011;64877;50.994;13.650;2023-02-28T00:20:14;9.65;;;4.07;;
76131;SDS011;64877;50.994;13.650;2023-02-28T00:22:41;8.75;;;3.45;;
76131;SDS011;64877;50.994;13.650;2023-02-28T00:25:09;9.85;;;4.10;;
76131;SDS011;64877;50.994;13.650;2023-02-28T00:27:36;7.95;;;4.10;;
76131;SDS011;64877;50.994;13.650;2023-02-28T00:30:03;8.18;;;4.05;;
76131;SDS011;64877;50.994;13.650;2023-02-28T00:32:30;8.57;;;4.00;;
76131;SDS011;64877;50.994;13.650;2023-02-28T00:34:55;9.18;;;4.68;;
76131;SDS011;64877;50.994;13.650;2023-02-28T00:37:21;9.30;;;4.35;;
76131;SDS011;64877;50.994;13.650;2023-02-28T00:39:46;9.45;;;4.20;;
76131;SDS011;64877;50.994;13.650;2023-02-28T00:42:11;9.35;;;4.22;;
76131;SDS011;64877;50.994;13.650;2023-02-28T00:44:37;8.95;;;4.10;;
76131;SDS011;64877;50.994;13.650;2023-02-28T00:47:02;10.50;;;4.45;;
76131;SDS011;64877;50.994;13.650;2023-02-28T00:49:28;8.93;;;4.28;;
76131;SDS011;64877;50.994;13.650;2023-02-28T00:51:54;10.00;;;4.22;;
76131;SDS011;64877;50.994;13.650;2023-02-28T00:54:20;9.57;;;4.13;;
76131;SDS011;64877;50.994;13.650;2023-02-28T00:56:46;7.82;;;3.45;;
76131;SDS011;64877;50.994;13.650;2023-02-28T00:59:12;7.18;;;3.47;;
76131;SDS011;64877;50.994;13.650;2023-02-28T01:01:39;7.53;;;3.20;;
76131;SDS011;64877;50.994;13.650;2023-02-28T01:04:04;7.22;;;4.25;;
76131;SDS011;64877;50.994;13.650;2023-02-28T01:06:30;7.72;;;3.75;;
76131;SDS011;64877;50.994;13.650;2023-02-28T01:08:56;5.60;;;2.92;;
76131;SDS011;64877;50.994;13.650;2023-02-28T01:11:22;7.10;;;3.55;;
76131;SDS011;64877;50.994;13.650;2023-02-28T01:13:47;6.35;;;3.63;;
76131;SDS011;64877;50.994;13.650;2023-02-28T01:16:13;8.70;;;3.63;;
76131;SDS011;64877;50.994;13.650;2023-02-28T01:18:38;8.77;;;4.10;;
76131;SDS011;64877;50.994;13.650;2023-02-28T01:21:05;8.43;;;4.03;;
76131;SDS011;64877;50.994;13.650;2023-02-28T01:23:31;6.93;;;3.35;;
76131;SDS011;64877;50.994;13.650;2023-02-28T01:25:57;7.57;;;3.85;;
76131;SDS011;64877;50.994;13.650;2023-02-28T01:28:22;8.15;;;3.17;;
76131;SDS011;64877;50.994;13.650;2023-02-28T01:30:50;7.55;;;3.58;;
76131;SDS011;64877;50.994;13.650;2023-02-28T01:33:16;6.50;;;3.65;;
76131;SDS011;64877;50.994;13.650;2023-02-28T01:35:41;8.32;;;3.67;;
76131;SDS011;64877;50.994;13.650;2023-02-28T01:38:07;5.45;;;3.35;;
76131;SDS011;64877;50.994;13.650;2023-02-28T01:40:32;6.10;;;3.42;;
76131;SDS011;64877;50.994;13.650;2023-02-28T01:42:57;7.68;;;3.88;;
76131;SDS011;64877;50.994;13.650;2023-02-28T01:45:27;6.78;;;3.40;;
76131;SDS011;64877;50.994;13.650;2023-02-28T01:48:04;6.03;;;3.10;;
76131;SDS011;64877;50.994;13.650;2023-02-28T01:50:34;6.93;;;3.22;;
76131;SDS011;64877;50.994;13.650;2023-02-28T01:53:05;9.30;;;4.28;;
76131;SDS011;64877;50.994;13.650;2023-02-28T01:55:34;7.25;;;3.38;;
76131;SDS011;64877;50.994;13.650;2023-02-28T01:58:02;7.05;;;3.75;;
76131;SDS011;64877;50.994;13.650;2023-02-28T02:00:29;8.65;;;3.58;;
76131;SDS011;64877;50.994;13.650;2023-02-28T02:02:57;7.75;;;4.00;;
76131;SDS011;64877;50.994;13.650;2023-02-28T02:05:27;8.02;;;3.78;;
76131;SDS011;64877;50.994;13.650;2023-02-28T02:07:57;6.93;;;3.67;;
76131;SDS011;64877;50.994;13.650;2023-02-28T02:19:22;6.22;;;3.78;;
76131;SDS011;64877;50.994;13.650;2023-02-28T02:35:38;6.55;;;3.83;;
76131;SDS011;64877;50.994;13.650;2023-02-28T02:38:34;8.85;;;3.83;;
76131;SDS011;64877;50.994;13.650;2023-02-28T02:43:54;7.45;;;4.05;;
76131;SDS011;64877;50.994;13.650;2023-02-28T02:46:30;7.82;;;3.55;;
76131;SDS011;64877;50.994;13.650;2023-02-28T02:49:00;8.23;;;3.40;;
76131;SDS011;64877;50.994;13.650;2023-02-28T02:51:29;7.88;;;3.92;;
76131;SDS011;64877;50.994;13.650;2023-02-28T02:53:59;6.35;;;3.15;;
76131;SDS011;64877;50.994;13.650;2023-02-28T02:56:30;8.68;;;3.75;;
76131;SDS011;64877;50.994;13.650;2023-02-28T02:58:59;6.40;;;3.55;;
76131;SDS011;64877;50.994;13.650;2023-02-28T03:01:29;12.13;;;4.07;;
76131;SDS011;64877;50.994;13.650;2023-02-28T03:06:21;11.48;;;3.72;;
76131;SDS011;64877;50.994;13.650;2023-02-28T03:08:47;9.38;;;3.83;;
76131;SDS011;64877;50.994;13.650;2023-02-28T03:11:13;7.35;;;3.42;;
76131;SDS011;64877;50.994;13.650;2023-02-28T03:16:16;7.43;;;3.95;;
76131;SDS011;64877;50.994;13.650;2023-02-28T03:21:36;6.07;;;3.85;;
76131;SDS011;64877;50.994;13.650;2023-02-28T03:24:11;7.60;;;4.20;;
76131;SDS011;64877;50.994;13.650;2023-02-28T03:26:44;7.38;;;3.50;;
76131;SDS011;64877;50.994;13.650;2023-02-28T03:29:21;5.80;;;3.40;;
76131;SDS011;64877;50.994;13.650;2023-02-28T03:31:58;7.70;;;3.80;;
76131;SDS011;64877;50.994;13.650;2023-02-28T03:34:31;7.38;;;4.03;;
76131;SDS011;64877;50.994;13.650;2023-02-28T03:37:02;5.45;;;3.08;;
76131;SDS011;64877;50.994;13.650;2023-02-28T03:39:34;6.65;;;3.35;;
76131;SDS011;64877;50.994;13.650;2023-02-28T03:42:05;6.03;;;3.78;;
76131;SDS011;64877;50.994;13.650;2023-02-28T03:44:36;4.40;;;2.80;;
76131;SDS011;64877;50.994;13.650;2023-02-28T03:47:15;10.35;;;4.35;;
76131;SDS011;64877;50.994;13.650;2023-02-28T03:49:57;8.38;;;3.90;;
76131;SDS011;64877;50.994;13.650;2023-02-28T03:52:31;7.50;;;3.85;;
76131;SDS011;64877;50.994;13.650;2023-02-28T03:55:02;6.57;;;3.88;;
76131;SDS011;64877;50.994;13.650;2023-02-28T03:57:33;6.82;;;4.05;;
76131;SDS011;64877;50.994;13.650;2023-02-28T04:00:07;6.90;;;3.70;;
76131;SDS011;64877;50.994;13.650;2023-02-28T04:02:34;8.43;;;3.60;;
76131;SDS011;64877;50.994;13.650;2023-02-28T04:05:00;8.68;;;3.95;;
76131;SDS011;64877;50.994;13.650;2023-02-28T04:07:28;7.07;;;3.80;;
76131;SDS011;64877;50.994;13.650;2023-02-28T04:09:54;6.28;;;3.50;;
76131;SDS011;64877;50.994;13.650;2023-02-28T04:12:19;9.07;;;4.20;;
76131;SDS011;64877;50.994;13.650;2023-02-28T04:14:47;7.38;;;3.40;;
76131;SDS011;64877;50.994;13.650;2023-02-28T04:17:13;9.73;;;3.72;;
76131;SDS011;64877;50.994;13.650;2023-02-28T04:19:39;9.23;;;4.30;;
76131;SDS011;64877;50.994;13.650;2023-02-28T04:22:04;10.73;;;4.25;;
76131;SDS011;64877;50.994;13.650;2023-02-28T04:24:29;7.30;;;4.07;;
76131;SDS011;64877;50.994;13.650;2023-02-28T04:26:55;7.88;;;4.28;;
76131;SDS011;64877;50.994;13.650;2023-02-28T04:29:26;7.03;;;4.22;;
76131;SDS011;64877;50.994;13.650;2023-02-28T04:31:54;8.43;;;4.97;;
76131;SDS011;64877;50.994;13.650;2023-02-28T04:34:21;11.25;;;4.25;;
76131;SDS011;64877;50.994;13.650;2023-02-28T04:36:47;10.18;;;4.53;;
76131;SDS011;64877;50.994;13.650;2023-02-28T04:39:18;7.95;;;4.40;;
76131;SDS011;64877;50.994;13.650;2023-02-28T04:41:44;12.15;;;5.65;;
76131;SDS011;64877;50.994;13.650;2023-02-28T04:44:10;10.40;;;4.78;;
76131;SDS011;64877;50.994;13.650;2023-02-28T04:46:36;9.60;;;4.53;;
76131;SDS011;64877;50.994;13.650;2023-02-28T04:49:01;8.60;;;4.95;;
76131;SDS011;64877;50.994;13.650;2023-02-28T04:51:27;10.55;;;4.90;;
76131;SDS011;64877;50.994;13.650;2023-02-28T04:53:53;10.20;;;4.80;;
76131;SDS011;64877;50.994;13.650;2023-02-28T04:56:18;10.20;;;5.03;;
76131;SDS011;64877;50.994;13.650;2023-02-28T04:58:44;7.97;;;5.00;;
76131;SDS011;64877;50.994;13.650;2023-02-28T05:01:23;7.28;;;4.07;;
76131;SDS011;64877;50.994;13.650;2023-02-28T05:03:49;8.35;;;5.15;;
76131;SDS011;64877;50.994;13.650;2023-02-28T05:06:15;8.43;;;4.43;;
76131;SDS011;64877;50.994;13.650;2023-02-28T05:08:41;10.40;;;4.43;;
76131;SDS011;64877;50.994;13.650;2023-02-28T05:11:10;11.85;;;5.43;;
76131;SDS011;64877;50.994;13.650;2023-02-28T05:13:39;11.85;;;5.50;;
76131;SDS011;64877;50.994;13.650;2023-02-28T05:16:05;7.43;;;4.65;;
76131;SDS011;64877;50.994;13.650;2023-02-28T05:18:30;9.77;;;5.43;;
76131;SDS011;64877;50.994;13.650;2023-02-28T05:20:56;11.35;;;4.72;;
76131;SDS011;64877;50.994;13.650;2023-02-28T05:23:21;9.13;;;5.00;;
76131;SDS011;64877;50.994;13.650;2023-02-28T05:25:47;10.88;;;4.95;;
76131;SDS011;64877;50.994;13.650;2023-02-28T05:28:13;8.95;;;4.88;;
76131;SDS011;64877;50.994;13.650;2023-02-28T05:30:39;10.52;;;4.75;;
76131;SDS011;64877;50.994;13.650;2023-02-28T05:33:04;12.38;;;5.15;;
76131;SDS011;64877;50.994;13.650;2023-02-28T05:35:30;11.20;;;5.70;;
76131;SDS011;64877;50.994;13.650;2023-02-28T05:37:55;14.27;;;6.20;;
76131;SDS011;64877;50.994;13.650;2023-02-28T05:40:21;10.95;;;5.70;;
76131;SDS011;64877;50.994;13.650;2023-02-28T05:42:46;9.35;;;5.32;;
76131;SDS011;64877;50.994;13.650;2023-02-28T05:45:12;10.82;;;5.75;;
76131;SDS011;64877;50.994;13.650;2023-02-28T05:47:37;12.15;;;5.93;;
76131;SDS011;64877;50.994;13.650;2023-02-28T05:50:03;9.40;;;5.10;;
76131;SDS011;64877;50.994;13.650;2023-02-28T05:52:30;11.90;;;5.57;;
76131;SDS011;64877;50.994;13.650;2023-02-28T05:54:55;12.10;;;6.22;;
76131;SDS011;64877;50.994;13.650;2023-02-28T05:57:21;11.80;;;5.78;;
76131;SDS011;64877;50.994;13.650;2023-02-28T05:59:47;13.80;;;5.75;;
76131;SDS011;64877;50.994;13.650;2023-02-28T06:02:13;9.48;;;5.47;;
76131;SDS011;64877;50.994;13.650;2023-02-28T06:04:40;9.82;;;5.70;;
76131;SDS011;64877;50.994;13.650;2023-02-28T06:07:06;11.45;;;6.00;;
76131;SDS011;64877;50.994;13.650;2023-02-28T06:09:32;11.55;;;6.03;;
76131;SDS011;64877;50.994;13.650;2023-02-28T06:11:58;12.68;;;6.40;;
76131;SDS011;64877;50.994;13.650;2023-02-28T06:14:24;11.88;;;6.63;;
76131;SDS011;64877;50.994;13.650;2023-02-28T06:16:50;14.50;;;6.38;;
76131;SDS011;64877;50.994;13.650;2023-02-28T06:19:15;11.82;;;6.15;;
76131;SDS011;64877;50.994;13.650;2023-02-28T06:21:41;14.35;;;6.63;;
76131;SDS011;64877;50.994;13.650;2023-02-28T06:24:07;13.27;;;6.80;;
76131;SDS011;64877;50.994;13.650;2023-02-28T06:26:33;16.23;;;6.90;;
76131;SDS011;64877;50.994;13.650;2023-02-28T06:28:58;15.48;;;8.20;;
76131;SDS011;64877;50.994;13.650;2023-02-28T06:31:25;16.10;;;8.60;;
76131;SDS011;64877;50.994;13.650;2023-02-28T06:33:54;15.57;;;8.43;;
76131;SDS011;64877;50.994;13.650;2023-02-28T06:36:20;18.25;;;8.90;;
76131;SDS011;64877;50.994;13.650;2023-02-28T06:38:46;15.75;;;7.90;;
76131;SDS011;64877;50.994;13.650;2023-02-28T06:41:16;14.15;;;7.60;;
76131;SDS011;64877;50.994;13.650;2023-02-28T06:43:42;16.00;;;7.63;;
76131;SDS011;64877;50.994;13.650;2023-02-28T06:46:08;13.45;;;7.78;;
76131;SDS011;64877;50.994;13.650;2023-02-28T06:48:36;13.63;;;6.88;;
76131;SDS011;64877;50.994;13.650;2023-02-28T06:51:05;11.07;;;6.70;;
76131;SDS011;64877;50.994;13.650;2023-02-28T06:53:36;15.60;;;7.15;;
76131;SDS011;64877;50.994;13.650;2023-02-28T06:56:05;22.02;;;9.68;;
76131;SDS011;64877;50.994;13.650;2023-02-28T06:58:32;20.08;;;8.43;;
76131;SDS011;64877;50.994;13.650;2023-02-28T07:00:58;21.35;;;8.80;;
76131;SDS011;64877;50.994;13.650;2023-02-28T07:03:23;20.58;;;9.80;;
76131;SDS011;64877;50.994;13.650;2023-02-28T07:05:49;21.08;;;10.05;;
76131;SDS011;64877;50.994;13.650;2023-02-28T07:08:14;21.55;;;9.65;;
76131;SDS011;64877;50.994;13.650;2023-02-28T07:10:40;19.00;;;9.57;;
76131;SDS011;64877;50.994;13.650;2023-02-28T07:13:06;20.65;;;9.63;;
76131;SDS011;64877;50.994;13.650;2023-02-28T07:15:33;14.35;;;7.97;;
76131;SDS011;64877;50.994;13.650;2023-02-28T07:17:59;17.20;;;8.13;;
76131;SDS011;64877;50.994;13.650;2023-02-28T07:20:25;13.65;;;7.70;;
76131;SDS011;64877;50.994;13.650;2023-02-28T07:22:50;15.38;;;7.68;;
76131;SDS011;64877;50.994;13.650;2023-02-28T07:25:25;13.45;;;7.15;;
76131;SDS011;64877;50.994;13.650;2023-02-28T07:27:51;13.75;;;7.75;;
76131;SDS011;64877;50.994;13.650;2023-02-28T07:30:18;17.35;;;7.55;;
76131;SDS011;64877;50.994;13.650;2023-02-28T07:32:43;14.10;;;8.20;;
76131;SDS011;64877;50.994;13.650;2023-02-28T07:35:09;18.27;;;10.18;;
76131;SDS011;64877;50.994;13.650;2023-02-28T07:37:34;16.00;;;8.80;;
76131;SDS011;64877;50.994;13.650;2023-02-28T07:40:03;16.55;;;9.27;;
76131;SDS011;64877;50.994;13.650;2023-02-28T07:42:32;16.13;;;8.48;;
76131;SDS011;64877;50.994;13.650;2023-02-28T07:44:57;16.58;;;8.95;;
76131;SDS011;64877;50.994;13.650;2023-02-28T07:47:24;15.02;;;8.15;;
76131;SDS011;64877;50.994;13.650;2023-02-28T07:49:49;13.95;;;7.90;;
76131;SDS011;64877;50.994;13.650;2023-02-28T07:52:15;17.00;;;8.02;;
76131;SDS011;64877;50.994;13.650;2023-02-28T07:54:40;13.85;;;8.15;;
76131;SDS011;64877;50.994;13.650;2023-02-28T07:57:05;19.10;;;9.10;;
76131;SDS011;64877;50.994;13.650;2023-02-28T07:59:31;14.38;;;7.90;;
76131;SDS011;64877;50.994;13.650;2023-02-28T08:01:57;14.32;;;8.30;;
76131;SDS011;64877;50.994;13.650;2023-02-28T08:04:22;14.73;;;7.15;;
76131;SDS011;64877;50.994;13.650;2023-02-28T08:06:48;17.20;;;7.32;;
76131;SDS011;64877;50.994;13.650;2023-02-28T08:09:13;14.30;;;6.88;;
76131;SDS011;64877;50.994;13.650;2023-02-28T08:11:39;16.73;;;7.03;;
76131;SDS011;64877;50.994;13.650;2023-02-28T08:14:04;13.95;;;7.30;;
76131;SDS011;64877;50.994;13.650;2023-02-28T08:16:30;19.58;;;8.48;;
76131;SDS011;64877;50.994;13.650;2023-02-28T08:18:56;17.42;;;7.60;;
76131;SDS011;64877;50.994;13.650;2023-02-28T08:21:21;14.88;;;7.68;;
76131;SDS011;64877;50.994;13.650;2023-02-28T08:23:47;19.90;;;8.00;;
76131;SDS011;64877;50.994;13.650;2023-02-28T08:26:14;14.90;;;7.47;;
76131;SDS011;64877;50.994;13.650;2023-02-28T08:28:40;14.13;;;7.70;;
76131;SDS011;64877;50.994;13.650;2023-02-28T08:31:12;14.73;;;7.32;;
76131;SDS011;64877;50.994;13.650;2023-02-28T08:33:39;13.77;;;7.53;;
76131;SDS011;64877;50.994;13.650;2023-02-28T08:36:06;14.23;;;8.15;;
76131;SDS011;64877;50.994;13.650;2023-02-28T08:38:34;13.30;;;7.50;;
76131;SDS011;64877;50.994;13.650;2023-02-28T08:41:00;13.90;;;7.68;;
76131;SDS011;64877;50.994;13.650;2023-02-28T08:45:53;15.05;;;6.07;;
76131;SDS011;64877;50.994;13.650;2023-02-28T08:53:25;10.93;;;5.13;;
76131;SDS011;64877;50.994;13.650;2023-02-28T08:55:57;12.68;;;5.88;;
76131;SDS011;64877;50.994;13.650;2023-02-28T08:58:24;11.07;;;5.30;;
76131;SDS011;64877;50.994;13.650;2023-02-28T09:00:50;11.25;;;4.95;;
76131;SDS011;64877;50.994;13.650;2023-02-28T09:03:15;9.70;;;4.63;;
76131;SDS011;64877;50.994;13.650;2023-02-28T09:05:43;9.35;;;5.03;;
76131;SDS011;64877;50.994;13.650;2023-02-28T09:08:20;10.88;;;5.32;;
76131;SDS011;64877;50.994;13.650;2023-02-28T09:10:46;11.18;;;5.57;;
76131;SDS011;64877;50.994;13.650;2023-02-28T09:13:12;10.63;;;5.32;;
76131;SDS011;64877;50.994;13.650;2023-02-28T09:15:38;9.90;;;5.30;;
76131;SDS011;64877;50.994;13.650;2023-02-28T09:18:04;12.18;;;6.00;;
76131;SDS011;64877;50.994;13.650;2023-02-28T09:20:29;12.77;;;5.25;;
76131;SDS011;64877;50.994;13.650;2023-02-28T09:22:54;9.65;;;5.18;;
76131;SDS011;64877;50.994;13.650;2023-02-28T09:25:20;11.98;;;5.93;;
76131;SDS011;64877;50.994;13.650;2023-02-28T09:27:45;9.82;;;5.57;;
76131;SDS011;64877;50.994;13.650;2023-02-28T09:30:11;9.00;;;5.07;;
76131;SDS011;64877;50.994;13.650;2023-02-28T09:32:37;9.15;;;5.22;;
76131;SDS011;64877;50.994;13.650;2023-02-28T09:35:02;8.90;;;4.82;;
76131;SDS011;64877;50.994;13.650;2023-02-28T09:37:28;8.40;;;4.43;;
76131;SDS011;64877;50.994;13.650;2023-02-28T09:39:55;10.95;;;4.78;;
76131;SDS011;64877;50.994;13.650;2023-02-28T09:42:21;12.45;;;5.32;;
76131;SDS011;64877;50.994;13.650;2023-02-28T09:44:56;7.68;;;4.72;;
76131;SDS011;64877;50.994;13.650;2023-02-28T09:47:32;9.02;;;4.57;;
76131;SDS011;64877;50.994;13.650;2023-02-28T09:50:03;11.70;;;4.78;;
76131;SDS011;64877;50.994;13.650;2023-02-28T09:52:41;8.02;;;4.47;;
76131;SDS011;64877;50.994;13.650;2023-02-28T09:55:19;13.95;;;5.60;;
76131;SDS011;64877;50.994;13.650;2023-02-28T09:57:47;11.20;;;5.60;;
76131;SDS011;64877;50.994;13.650;2023-02-28T10:00:20;12.65;;;4.97;;
76131;SDS011;64877;50.994;13.650;2023-02-28T10:05:54;11.05;;;5.05;;
76131;SDS011;64877;50.994;13.650;2023-02-28T10:08:48;12.90;;;5.30;;
76131;SDS011;64877;50.994;13.650;2023-02-28T10:11:21;10.73;;;4.32;;
76131;SDS011;64877;50.994;13.650;2023-02-28T10:13:59;14.50;;;4.97;;
76131;SDS011;64877;50.994;13.650;2023-02-28T10:16:35;8.48;;;4.30;;
76131;SDS011;64877;50.994;13.650;2023-02-28T10:21:36;9.43;;;5.18;;
76131;SDS011;64877;50.994;13.650;2023-02-28T10:27:14;11.07;;;5.38;;
76131;SDS011;64877;50.994;13.650;2023-02-28T10:29:43;10.55;;;5.05;;
76131;SDS011;64877;50.994;13.650;2023-02-28T10:32:11;10.30;;;5.45;;
76131;SDS011;64877;50.994;13.650;2023-02-28T10:34:41;8.98;;;5.18;;
76131;SDS011;64877;50.994;13.650;2023-02-28T10:37:07;10.27;;;4.78;;
76131;SDS011;64877;50.994;13.650;2023-02-28T10:39:36;10.38;;;5.20;;
76131;SDS011;64877;50.994;13.650;2023-02-28T10:42:04;16.65;;;5.65;;
76131;SDS011;64877;50.994;13.650;2023-02-28T10:44:30;11.80;;;5.65;;
76131;SDS011;64877;50.994;13.650;2023-02-28T10:46:55;9.95;;;6.03;;
76131;SDS011;64877;50.994;13.650;2023-02-28T10:49:22;11.07;;;5.38;;
76131;SDS011;64877;50.994;13.650;2023-02-28T10:51:52;10.20;;;5.10;;
76131;SDS011;64877;50.994;13.650;2023-02-28T10:57:06;8.85;;;4.78;;
76131;SDS011;64877;50.994;13.650;2023-02-28T10:59:32;10.90;;;4.93;;
76131;SDS011;64877;50.994;13.650;2023-02-28T11:01:57;7.82;;;4.55;;
76131;SDS011;64877;50.994;13.650;2023-02-28T11:06:56;11.23;;;6.13;;
76131;SDS011;64877;50.994;13.650;2023-02-28T11:12:04;13.73;;;5.90;;
76131;SDS011;64877;50.994;13.650;2023-02-28T11:14:48;9.88;;;5.55;;
76131;SDS011;64877;50.994;13.650;2023-02-28T11:17:21;10.45;;;5.68;;
76131;SDS011;64877;50.994;13.650;2023-02-28T11:19:50;10.57;;;5.65;;
76131;SDS011;64877;50.994;13.650;2023-02-28T11:22:25;9.77;;;5.43;;
76131;SDS011;64877;50.994;13.650;2023-02-28T11:24:57;14.05;;;5.15;;
76131;SDS011;64877;50.994;13.650;2023-02-28T11:29:56;12.27;;;5.10;;
76131;SDS011;64877;50.994;13.650;2023-02-28T11:32:26;10.55;;;5.60;;
76131;SDS011;64877;50.994;13.650;2023-02-28T11:35:01;12.43;;;5.40;;
76131;SDS011;64877;50.994;13.650;2023-02-28T11:37:36;10.27;;;5.55;;
76131;SDS011;64877;50.994;13.650;2023-02-28T11:40:16;10.27;;;5.75;;
76131;SDS011;64877;50.994;13.650;2023-02-28T11:48:12;12.15;;;5.90;;
76131;SDS011;64877;50.994;13.650;2023-02-28T11:53:22;19.10;;;5.75;;
76131;SDS011;64877;50.994;13.650;2023-02-28T11:55:54;13.63;;;6.15;;
76131;SDS011;64877;50.994;13.650;2023-02-28T12:01:46;9.50;;;5.63;;
76131;SDS011;64877;50.994;13.650;2023-02-28T12:05:08;9.10;;;5.18;;
76131;SDS011;64877;50.994;13.650;2023-02-28T12:08:03;10.55;;;5.28;;
76131;SDS011;64877;50.994;13.650;2023-02-28T12:10:41;10.93;;;5.15;;
76131;SDS011;64877;50.994;13.650;2023-02-28T12:13:21;9.98;;;5.70;;
76131;SDS011;64877;50.994;13.650;2023-02-28T12:18:52;9.98;;;5.40;;
76131;SDS011;64877;50.994;13.650;2023-02-28T12:21:51;12.82;;;5.63;;
76131;SDS011;64877;50.994;13.650;2023-02-28T12:27:25;8.85;;;4.97;;
76131;SDS011;64877;50.994;13.650;2023-02-28T12:32:32;9.38;;;5.15;;
76131;SDS011;64877;50.994;13.650;2023-02-28T12:37:35;9.40;;;5.57;;
76131;SDS011;64877;50.994;13.650;2023-02-28T12:40:06;9.13;;;5.45;;
76131;SDS011;64877;50.994;13.650;2023-02-28T12:42:38;9.63;;;5.00;;
76131;SDS011;64877;50.994;13.650;2023-02-28T12:45:18;10.23;;;5.43;;
76131;SDS011;64877;50.994;13.650;2023-02-28T12:47:59;11.02;;;6.03;;
76131;SDS011;64877;50.994;13.650;2023-02-28T12:50:29;8.80;;;4.80;;
76131;SDS011;64877;50.994;13.650;2023-02-28T12:52:59;9.45;;;5.15;;
76131;SDS011;64877;50.994;13.650;2023-02-28T12:58:17;10.38;;;4.53;;
76131;SDS011;64877;50.994;13.650;2023-02-28T13:19:44;9.65;;;5.78;;
76131;SDS011;64877;50.994;13.650;2023-02-28T13:24:50;9.18;;;5.15;;
76131;SDS011;64877;50.994;13.650;2023-02-28T13:27:21;10.95;;;5.68;;
76131;SDS011;64877;50.994;13.650;2023-02-28T13:29:50;10.30;;;5.93;;
76131;SDS011;64877;50.994;13.650;2023-02-28T13:39:56;9.80;;;5.15;;
76131;SDS011;64877;50.994;13.650;2023-02-28T13:55:28;11.48;;;5.97;;
76131;SDS011;64877;50.994;13.650;2023-02-28T13:58:22;12.98;;;6.20;;
76131;SDS011;64877;50.994;13.650;2023-02-28T14:03:56;13.90;;;6.80;;
76131;SDS011;64877;50.994;13.650;2023-02-28T14:06:28;10.95;;;5.78;;
76131;SDS011;64877;50.994;13.650;2023-02-28T14:08:58;12.10;;;6.15;;
76131;SDS011;64877;50.994;13.650;2023-02-28T14:11:35;11.90;;;6.60;;
76131;SDS011;64877;50.994;13.650;2023-02-28T14:14:04;13.15;;;7.03;;
76131;SDS011;64877;50.994;13.650;2023-02-28T14:16:41;12.38;;;7.25;;
76131;SDS011;64877;50.994;13.650;2023-02-28T14:19:21;13.73;;;6.97;;
76131;SDS011;64877;50.994;13.650;2023-02-28T14:21:53;12.93;;;7.35;;
76131;SDS011;64877;50.994;13.650;2023-02-28T14:30:17;14.43;;;7.00;;
76131;SDS011;64877;50.994;13.650;2023-02-28T14:33:05;10.13;;;6.78;;
76131;SDS011;64877;50.994;13.650;2023-02-28T14:35:50;12.25;;;6.60;;
76131;SDS011;64877;50.994;13.650;2023-02-28T14:38:30;14.82;;;6.82;;
76131;SDS011;64877;50.994;13.650;2023-02-28T14:41:00;15.27;;;6.70;;
76131;SDS011;64877;50.994;13.650;2023-02-28T14:43:29;11.55;;;6.50;;
76131;SDS011;64877;50.994;13.650;2023-02-28T14:45:55;10.65;;;6.25;;
76131;SDS011;64877;50.994;13.650;2023-02-28T14:50:55;12.68;;;6.55;;
76131;SDS011;64877;50.994;13.650;2023-02-28T14:53:23;11.73;;;6.80;;
76131;SDS011;64877;50.994;13.650;2023-02-28T14:55:52;16.80;;;6.97;;
76131;SDS011;64877;50.994;13.650;2023-02-28T15:00:54;12.75;;;7.25;;
76131;SDS011;64877;50.994;13.650;2023-02-28T15:05:55;12.88;;;7.10;;
76131;SDS011;64877;50.994;13.650;2023-02-28T15:08:23;11.50;;;7.72;;
76131;SDS011;64877;50.994;13.650;2023-02-28T15:10:54;11.48;;;6.65;;
76131;SDS011;64877;50.994;13.650;2023-02-28T15:13:21;13.77;;;6.90;;
76131;SDS011;64877;50.994;13.650;2023-02-28T15:15:53;13.88;;;6.95;;
76131;SDS011;64877;50.994;13.650;2023-02-28T15:18:27;11.88;;;7.55;;
76131;SDS011;64877;50.994;13.650;2023-02-28T15:21:07;13.20;;;7.07;;
76131;SDS011;64877;50.994;13.650;2023-02-28T15:23:37;14.18;;;7.43;;
76131;SDS011;64877;50.994;13.650;2023-02-28T15:28:31;13.60;;;7.18;;
76131;SDS011;64877;50.994;13.650;2023-02-28T15:30:58;13.90;;;6.72;;
76131;SDS011;64877;50.994;13.650;2023-02-28T15:33:26;15.75;;;7.15;;
76131;SDS011;64877;50.994;13.650;2023-02-28T15:36:28;14.38;;;7.03;;
76131;SDS011;64877;50.994;13.650;2023-02-28T15:38:50;13.77;;;7.25;;
76131;SDS011;64877;50.994;13.650;2023-02-28T15:41:30;15.20;;;7.53;;
76131;SDS011;64877;50.994;13.650;2023-02-28T15:46:53;14.82;;;7.70;;
76131;SDS011;64877;50.994;13.650;2023-02-28T15:49:21;12.20;;;7.25;;
76131;SDS011;64877;50.994;13.650;2023-02-28T15:51:48;14.15;;;7.72;;
76131;SDS011;64877;50.994;13.650;2023-02-28T15:54:21;11.85;;;7.22;;
76131;SDS011;64877;50.994;13.650;2023-02-28T15:56:52;13.35;;;6.72;;
76131;SDS011;64877;50.994;13.650;2023-02-28T15:59:30;13.27;;;7.32;;
76131;SDS011;64877;50.994;13.650;2023-02-28T16:07:23;12.30;;;7.28;;
76131;SDS011;64877;50.994;13.650;2023-02-28T16:09:49;14.02;;;7.78;;
76131;SDS011;64877;50.994;13.650;2023-02-28T16:12:15;14.00;;;7.03;;
76131;SDS011;64877;50.994;13.650;2023-02-28T16:14:40;11.73;;;6.93;;
76131;SDS011;64877;50.994;13.650;2023-02-28T16:17:13;15.57;;;7.63;;
76131;SDS011;64877;50.994;13.650;2023-02-28T16:19:44;14.85;;;7.88;;
76131;SDS011;64877;50.994;13.650;2023-02-28T16:22:10;13.75;;;7.65;;
76131;SDS011;64877;50.994;13.650;2023-02-28T16:24:35;16.83;;;9.50;;
76131;SDS011;64877;50.994;13.650;2023-02-28T16:27:01;16.63;;;8.95;;
76131;SDS011;64877;50.994;13.650;2023-02-28T16:29:28;16.77;;;8.32;;
76131;SDS011;64877;50.994;13.650;2023-02-28T16:31:59;15.43;;;8.00;;
76131;SDS011;64877;50.994;13.650;2023-02-28T16:34:25;15.85;;;7.55;;
76131;SDS011;64877;50.994;13.650;2023-02-28T16:36:51;14.48;;;7.63;;
76131;SDS011;64877;50.994;13.650;2023-02-28T16:39:16;14.88;;;7.93;;
76131;SDS011;64877;50.994;13.650;2023-02-28T16:41:43;17.38;;;7.93;;
76131;SDS011;64877;50.994;13.650;2023-02-28T16:44:11;15.27;;;8.38;;
76131;SDS011;64877;50.994;13.650;2023-02-28T16:46:39;13.25;;;7.93;;
76131;SDS011;64877;50.994;13.650;2023-02-28T16:49:05;14.15;;;7.63;;
76131;SDS011;64877;50.994;13.650;2023-02-28T16:51:36;15.75;;;8.57;;
76131;SDS011;64877;50.994;13.650;2023-02-28T16:54:01;18.10;;;10.00;;
76131;SDS011;64877;50.994;13.650;2023-02-28T16:56:26;17.88;;;8.90;;
76131;SDS011;64877;50.994;13.650;2023-02-28T16:58:52;20.58;;;10.88;;
76131;SDS011;64877;50.994;13.650;2023-02-28T17:01:22;22.83;;;11.50;;
76131;SDS011;64877;50.994;13.650;2023-02-28T17:03:48;25.63;;;13.07;;
76131;SDS011;64877;50.994;13.650;2023-02-28T17:06:16;19.60;;;10.50;;
76131;SDS011;64877;50.994;13.650;2023-02-28T17:08:53;17.73;;;9.82;;
76131;SDS011;64877;50.994;13.650;2023-02-28T17:11:19;20.25;;;9.82;;